Time;durP1;ratioP1;P1;durP2;ratioP2;P2;SDS_P1;SDS_P2;PMS_P1;PMS_P2;Temp;Humidity;BMP_temperature;BMP_pressure;BME280_temperature;BME280_humidity;BME280_pressure;Samples;Min_cycle;Max_cycle;Signal;HPM_P1;HPM_P2
2023/10/07 00:03:09;;;;;;;18.30;9.13;;;;;;;17.85;100.00;96987.91;5102517;28;20050;-81
2023/10/07 00:05:35;;;;;;;21.20;9.50;;;;;;;18.07;100.00;96986.94;5090544;28;20047;-81
2023/10/07 00:08:12;;;;;;;17.70;9.03;;;;;;;18.03;100.00;96987.50;5087488;28;20474;-80
2023/10/07 00:10:40;;;;;;;16.73;8.67;;;;;;;17.93;100.00;96987.78;5087921;28;20069;-80
2023/10/07 00:13:09;;;;;;;17.90;8.60;;;;;;;17.86;100.00;96990.38;5085329;28;20855;-79
2023/10/07 00:15:42;;;;;;;15.23;7.70;;;;;;;17.56;100.00;96984.25;5092372;28;20023;-79
2023/10/07 00:18:13;;;;;;;10.32;6.05;;;;;;;17.78;100.00;96984.34;5106069;28;20023;-80
2023/10/07 00:20:56;;;;;;;14.07;8.40;;;;;;;17.79;100.00;96988.66;5107371;27;20028;-80
2023/10/07 00:23:28;;;;;;;16.37;8.43;;;;;;;17.70;100.00;96981.75;5103888;28;20114;-80
2023/10/07 00:25:56;;;;;;;14.33;8.03;;;;;;;17.53;100.00;96973.97;5109838;28;20542;-80
2023/10/07 00:28:32;;;;;;;14.70;8.03;;;;;;;17.36;100.00;96980.50;5092398;28;21065;-80
2023/10/07 00:31:06;;;;;;;16.93;8.53;;;;;;;17.49;100.00;96986.00;5104956;28;20102;-80
2023/10/07 00:39:20;;;;;;;15.37;8.40;;;;;;;17.35;100.00;96987.66;5101164;28;20016;-80
2023/10/07 00:41:46;;;;;;;15.90;8.37;;;;;;;17.04;100.00;96995.78;5103164;28;20019;-80
2023/10/07 00:44:31;;;;;;;18.83;9.07;;;;;;;17.03;100.00;96999.44;5089275;28;20081;-80
2023/10/07 00:52:28;;;;;;;17.87;8.83;;;;;;;16.85;100.00;97004.25;5109064;28;20358;-80
2023/10/07 01:00:00;;;;;;;15.40;8.63;;;;;;;16.67;100.00;96993.94;5108079;28;20049;-80
2023/10/07 01:02:32;;;;;;;17.80;9.53;;;;;;;16.57;100.00;96996.84;5089794;28;20035;-79
2023/10/07 01:05:06;;;;;;;18.43;9.43;;;;;;;16.76;100.00;96987.56;5101750;28;20138;-80
2023/10/07 01:07:34;;;;;;;20.63;9.67;;;;;;;16.18;100.00;96984.50;5091797;28;20038;-80
2023/10/07 01:12:39;;;;;;;18.33;9.23;;;;;;;16.01;100.00;96978.47;5106118;28;20028;-80
2023/10/07 01:15:12;;;;;;;20.27;9.93;;;;;;;16.05;100.00;96978.13;5106021;28;20523;-80
2023/10/07 01:17:41;;;;;;;14.70;9.20;;;;;;;16.47;100.00;96967.88;5079962;28;20032;-80
2023/10/07 01:20:08;;;;;;;19.17;10.47;;;;;;;16.44;100.00;96964.75;5103841;28;20418;-79
2023/10/07 01:22:37;;;;;;;19.73;10.17;;;;;;;16.18;100.00;96957.13;5082183;28;20062;-79
2023/10/07 01:25:09;;;;;;;16.37;9.43;;;;;;;16.40;100.00;96961.63;5087374;28;20028;-80
2023/10/07 01:27:42;;;;;;;18.13;9.33;;;;;;;16.76;100.00;96961.00;5103025;28;20070;-80
2023/10/07 01:30:17;;;;;;;13.63;6.55;;;;;;;16.95;100.00;96960.50;5084891;28;20032;-80
2023/10/07 01:33:24;;;;;;;18.10;9.73;;;;;;;17.00;100.00;96957.31;5089757;28;20050;-79
2023/10/07 01:35:38;;;;;;;16.37;8.97;;;;;;;16.94;100.00;96948.22;5107835;28;20481;-80
2023/10/07 01:38:07;;;;;;;18.03;9.57;;;;;;;16.68;100.00;96953.91;5103934;28;20019;-80
2023/10/07 01:43:19;;;;;;;18.23;10.20;;;;;;;17.07;100.00;96952.91;5107651;28;20016;-80
2023/10/07 01:45:47;;;;;;;17.70;9.40;;;;;;;17.05;100.00;96959.41;5091069;28;20016;-80
2023/10/07 01:48:13;;;;;;;17.17;10.13;;;;;;;16.90;100.00;96954.06;5082434;28;20493;-80
2023/10/07 01:50:40;;;;;;;15.10;9.17;;;;;;;16.64;100.00;96957.94;5082642;28;20015;-80
2023/10/07 01:53:07;;;;;;;19.20;8.63;;;;;;;16.48;100.00;96942.97;5088676;28;20627;-80
2023/10/07 01:55:36;;;;;;;15.03;8.87;;;;;;;16.31;100.00;96945.94;5086717;28;20031;-80
2023/10/07 01:58:05;;;;;;;15.30;9.13;;;;;;;16.08;100.00;96943.28;5083583;28;20050;-80
2023/10/07 02:00:46;;;;;;;16.23;8.83;;;;;;;16.36;100.00;96939.06;5105774;28;20035;-80
2023/10/07 02:03:14;;;;;;;18.43;8.93;;;;;;;16.92;100.00;96939.59;5089201;28;20023;-80
2023/10/07 02:05:49;;;;;;;15.03;8.10;;;;;;;17.07;100.00;96939.63;5083177;28;20016;-80
2023/10/07 02:08:22;;;;;;;15.00;9.07;;;;;;;16.40;100.00;96951.00;5102154;28;20043;-79
2023/10/07 02:10:50;;;;;;;14.67;8.90;;;;;;;16.46;100.00;96949.44;5109002;28;20110;-80
2023/10/07 02:13:19;;;;;;;14.10;8.87;;;;;;;16.10;100.00;96942.09;5106728;28;20035;-80
2023/10/07 02:15:49;;;;;;;14.87;8.13;;;;;;;16.16;100.00;96946.72;5099230;28;20027;-80
2023/10/07 02:18:15;;;;;;;13.77;7.80;;;;;;;16.67;100.00;96949.63;5088892;28;20024;-80
2023/10/07 02:21:07;;;;;;;15.53;8.17;;;;;;;16.70;100.00;96957.22;5102522;28;20023;-80
2023/10/07 02:23:43;;;;;;;16.33;8.63;;;;;;;16.76;100.00;96954.88;5094928;28;20050;-80
2023/10/07 02:26:19;;;;;;;16.93;8.83;;;;;;;16.59;100.00;96962.94;5104761;28;20023;-80
2023/10/07 02:28:50;;;;;;;15.30;8.43;;;;;;;16.63;100.00;96966.91;5097200;28;20501;-80
2023/10/07 02:31:20;;;;;;;14.93;8.40;;;;;;;16.60;100.00;96961.97;5099261;28;20031;-79
2023/10/07 02:33:51;;;;;;;14.33;7.80;;;;;;;16.76;100.00;96955.69;5090298;28;20066;-80
2023/10/07 02:36:28;;;;;;;16.97;8.33;;;;;;;16.59;100.00;96964.78;5082052;28;20468;-80
2023/10/07 02:39:26;;;;;;;15.77;7.47;;;;;;;16.62;100.00;96965.25;5091258;28;20469;-80
2023/10/07 02:41:53;;;;;;;16.60;8.20;;;;;;;16.45;100.00;96967.22;5100401;28;20024;-80
2023/10/07 02:44:37;;;;;;;17.03;8.50;;;;;;;16.31;100.00;96959.22;5105793;28;20035;-80
2023/10/07 02:47:11;;;;;;;15.30;9.00;;;;;;;16.25;100.00;96953.59;5093415;28;20039;-80
2023/10/07 02:49:40;;;;;;;16.03;7.60;;;;;;;16.07;100.00;96965.50;5109504;28;20028;-80
2023/10/07 02:52:05;;;;;;;14.77;8.17;;;;;;;16.24;100.00;96961.75;5097543;28;20012;-80
2023/10/07 02:54:34;;;;;;;14.37;8.00;;;;;;;16.58;100.00;96963.13;5093580;28;20027;-79
2023/10/07 02:59:35;;;;;;;14.03;7.70;;;;;;;16.50;100.00;96956.06;5113465;28;20481;-80
2023/10/07 03:04:42;;;;;;;16.00;7.63;;;;;;;16.31;100.00;96956.56;5103006;28;20024;-79
2023/10/07 03:07:15;;;;;;;14.43;7.47;;;;;;;16.32;100.00;96958.19;5105219;28;20024;-79
2023/10/07 03:10:30;;;;;;;15.63;7.80;;;;;;;16.38;100.00;96968.94;5092901;28;20118;-79
2023/10/07 03:12:36;;;;;;;15.37;8.37;;;;;;;16.36;100.00;96967.44;5103383;28;20043;-80
2023/10/07 03:15:21;;;;;;;14.57;7.10;;;;;;;16.15;100.00;96962.78;5091753;28;20034;-80
2023/10/07 03:17:46;;;;;;;14.20;6.63;;;;;;;16.14;100.00;96961.97;5094150;28;20035;-79
2023/10/07 03:28:25;;;;;;;16.63;7.88;;;;;;;15.90;100.00;96960.31;5099967;28;20093;-79
2023/10/07 03:30:51;;;;;;;14.50;7.47;;;;;;;16.05;100.00;96963.03;5093170;28;20436;-80
2023/10/07 03:33:48;;;;;;;15.73;7.60;;;;;;;15.79;100.00;96961.53;5091855;28;20035;-80
2023/10/07 03:41:35;;;;;;;16.13;7.53;;;;;;;15.93;100.00;96969.75;5107782;28;20077;-80
2023/10/07 03:44:03;;;;;;;14.43;7.23;;;;;;;15.95;100.00;96965.06;5111066;28;20393;-80
2023/10/07 03:46:29;;;;;;;11.50;6.60;;;;;;;16.31;100.00;96961.84;5110663;28;20073;-79
2023/10/07 03:48:57;;;;;;;15.67;7.20;;;;;;;16.00;100.00;96974.16;5091034;28;20325;-80
2023/10/07 03:51:23;;;;;;;14.87;7.20;;;;;;;16.20;100.00;96966.56;5091400;28;20059;-80
2023/10/07 03:53:54;;;;;;;13.00;6.60;;;;;;;16.22;100.00;96967.22;5091296;28;20063;-80
2023/10/07 03:56:20;;;;;;;14.10;6.97;;;;;;;16.18;100.00;96965.91;5108733;28;20024;-80
2023/10/07 03:58:47;;;;;;;13.17;7.17;;;;;;;15.98;100.00;96970.84;5080524;28;20066;-80
2023/10/07 04:01:16;;;;;;;14.23;7.67;;;;;;;16.00;100.00;96965.38;5106891;28;20110;-79
2023/10/07 04:03:47;;;;;;;12.67;7.20;;;;;;;16.25;100.00;96963.38;5091873;28;20027;-79
2023/10/07 04:06:14;;;;;;;12.70;7.17;;;;;;;16.22;100.00;96966.38;5092383;28;20031;-79
2023/10/07 04:08:40;;;;;;;14.07;7.27;;;;;;;15.89;100.00;96979.03;5092080;28;20100;-80
2023/10/07 04:11:14;;;;;;;12.47;6.17;;;;;;;15.67;100.00;96985.94;5087271;28;20042;-79
2023/10/07 04:13:43;;;;;;;13.53;6.70;;;;;;;15.76;100.00;96980.44;5094629;28;20032;-79
2023/10/07 04:16:23;;;;;;;14.60;7.03;;;;;;;16.01;100.00;96981.13;5083793;28;20119;-80
2023/10/07 04:19:16;;;;;;;11.23;6.43;;;;;;;15.85;100.00;96988.34;5089329;28;20485;-79
2023/10/07 04:21:42;;;;;;;14.73;6.35;;;;;;;15.81;100.00;96995.00;5091486;28;20038;-80
2023/10/07 04:24:12;;;;;;;12.80;6.97;;;;;;;15.73;100.00;96996.69;5088142;28;20020;-79
2023/10/07 04:26:51;;;;;;;11.50;6.23;;;;;;;15.62;100.00;96989.06;5088781;28;20028;-80
2023/10/07 04:29:18;;;;;;;18.17;8.40;;;;;;;15.57;100.00;96988.78;5101050;28;20394;-80
2023/10/07 04:31:54;;;;;;;11.97;7.30;;;;;;;15.42;100.00;97003.72;5093052;28;20020;-79
2023/10/07 04:34:24;;;;;;;16.33;9.17;;;;;;;15.36;100.00;96999.09;5088619;28;20110;-80
2023/10/07 04:39:38;;;;;;;15.73;8.17;;;;;;;15.02;100.00;97000.19;5108139;28;20027;-79
2023/10/07 04:42:07;;;;;;;14.67;7.80;;;;;;;14.91;100.00;97000.53;5087679;28;20043;-79
2023/10/07 04:50:33;;;;;;;13.33;6.57;;;;;;;14.83;100.00;96986.31;5100228;28;20031;-80
2023/10/07 04:52:50;;;;;;;13.33;6.33;;;;;;;14.85;100.00;96981.69;5101020;28;20139;-79
2023/10/07 04:55:25;;;;;;;12.17;5.90;;;;;;;15.05;100.00;96979.47;5104426;28;20019;-80
2023/10/07 05:02:57;;;;;;;13.27;6.63;;;;;;;15.29;100.00;96999.81;5103218;28;20097;-79
2023/10/07 05:05:30;;;;;;;13.80;6.53;;;;;;;15.35;100.00;97000.09;5090433;28;20097;-79
2023/10/07 05:10:52;;;;;;;12.20;5.67;;;;;;;15.42;100.00;96998.44;5107399;28;20028;-80
2023/10/07 05:13:18;;;;;;;;;;;;;;;15.29;100.00;96986.56;5082725;28;20023;-80
2023/10/07 05:15:43;;;;;;;14.43;6.27;;;;;;;14.60;100.00;96988.81;5083952;28;19919;-79
2023/10/07 05:18:13;;;;;;;14.27;6.40;;;;;;;14.47;100.00;96992.91;5108055;28;20031;-80
2023/10/07 05:20:46;;;;;;;12.83;6.93;;;;;;;14.57;100.00;96988.31;5089407;28;20027;-80
2023/10/07 05:23:14;;;;;;;;;;;;;;;14.48;100.00;96984.78;5092302;28;20085;-80
2023/10/07 05:25:49;;;;;;;12.77;6.00;;;;;;;14.58;100.00;96989.94;5083227;28;20374;-79
2023/10/07 05:28:22;;;;;;;13.53;6.23;;;;;;;15.00;100.00;96981.81;5101438;28;20410;-79
2023/10/07 05:30:53;;;;;;;11.98;5.35;;;;;;;14.98;100.00;96975.84;5085090;28;20595;-79
2023/10/07 05:33:26;;;;;;;14.50;5.60;;;;;;;15.40;100.00;96965.97;5091271;28;20070;-80
2023/10/07 05:35:58;;;;;;;9.40;4.25;;;;;;;15.33;100.00;96974.59;5091615;28;20034;-79
2023/10/07 05:38:25;;;;;;;14.33;6.30;;;;;;;15.64;100.00;96971.16;5091474;28;20431;-80
2023/10/07 05:40:51;;;;;;;11.40;6.00;;;;;;;15.62;100.00;96967.03;5100226;28;20015;-79
2023/10/07 05:43:16;;;;;;;13.10;5.87;;;;;;;15.64;100.00;96971.16;5090986;28;20039;-79
2023/10/07 05:45:42;;;;;;;10.77;5.57;;;;;;;15.46;100.00;96967.91;5090845;28;20463;-80
2023/10/07 05:48:08;;;;;;;10.90;5.13;;;;;;;15.69;100.00;96966.22;5099709;28;20019;-80
2023/10/07 05:50:34;;;;;;;14.50;6.10;;;;;;;15.72;100.00;96962.38;5087950;28;20389;-79
2023/10/07 05:53:04;;;;;;;14.47;6.53;;;;;;;15.79;100.00;96958.88;5107930;28;20020;-80
2023/10/07 05:55:33;;;;;;;16.50;6.17;;;;;;;16.28;100.00;96965.69;5090893;28;20076;-80
2023/10/07 05:58:05;;;;;;;12.33;6.03;;;;;;;16.84;100.00;96965.44;5100423;28;20133;-80
2023/10/07 06:00:36;;;;;;;11.53;5.67;;;;;;;16.36;100.00;96980.72;5092039;28;20445;-80
2023/10/07 06:03:06;;;;;;;12.77;5.83;;;;;;;17.12;97.91;96981.59;5105591;28;20039;-80
2023/10/07 06:05:37;;;;;;;15.80;5.87;;;;;;;17.08;95.69;96991.75;5093105;28;20497;-80
2023/10/07 06:08:07;;;;;;;16.77;5.73;;;;;;;17.22;94.37;97003.41;5091158;28;20060;-80
2023/10/07 06:10:33;;;;;;;12.37;5.90;;;;;;;17.31;94.19;97007.63;5107114;28;20024;-80
2023/10/07 06:13:08;;;;;;;13.90;6.13;;;;;;;17.15;94.68;97000.66;5107806;28;20024;-80
2023/10/07 06:15:37;;;;;;;13.77;6.83;;;;;;;17.17;96.55;97003.16;5083135;28;20037;-80
2023/10/07 06:18:07;;;;;;;11.60;5.83;;;;;;;16.97;98.64;97013.47;5085122;28;20016;-80
2023/10/07 06:20:38;;;;;;;14.77;6.30;;;;;;;16.53;98.34;97008.78;5090066;28;20049;-80
2023/10/07 06:23:13;;;;;;;16.13;6.20;;;;;;;16.24;100.00;97005.03;5107555;28;20019;-80
2023/10/07 06:25:42;;;;;;;12.30;5.43;;;;;;;16.05;100.00;97002.81;5095983;28;20024;-80
2023/10/07 06:28:10;;;;;;;10.80;5.60;;;;;;;16.37;99.91;97000.97;5088664;28;20027;-80
2023/10/07 06:30:40;;;;;;;12.97;5.53;;;;;;;17.39;95.57;96999.56;5091259;28;20050;-80
2023/10/07 06:33:05;;;;;;;11.20;5.13;;;;;;;17.23;90.80;96997.06;5093941;28;20045;-80
2023/10/07 06:35:33;;;;;;;12.43;5.03;;;;;;;17.49;92.50;96999.28;5109792;28;20040;-80
2023/10/07 06:37:59;;;;;;;11.73;5.40;;;;;;;17.13;96.88;97000.00;5088336;28;20031;-80
2023/10/07 06:40:31;;;;;;;11.20;5.33;;;;;;;16.98;95.39;96998.34;5076147;28;20028;-80
2023/10/07 06:42:58;;;;;;;12.38;5.47;;;;;;;16.64;97.80;96999.59;5091109;28;20020;-79
2023/10/07 06:45:38;;;;;;;11.77;5.70;;;;;;;17.53;93.14;96981.94;5094219;28;20028;-79
2023/10/07 06:48:09;;;;;;;11.70;5.60;;;;;;;17.86;87.35;96981.56;5093977;28;20484;-79
2023/10/07 06:50:35;;;;;;;12.37;5.70;;;;;;;18.31;87.46;96987.63;5093777;28;20026;-79
2023/10/07 06:53:05;;;;;;;9.70;5.43;;;;;;;18.50;82.82;96988.81;5093834;28;20035;-79
2023/10/07 06:55:36;;;;;;;12.07;5.87;;;;;;;18.79;79.33;96985.22;5093818;28;20403;-79
2023/10/07 06:58:04;;;;;;;14.70;5.77;;;;;;;19.62;72.71;96975.50;5094566;28;20019;-79
2023/10/07 07:00:47;;;;;;;12.10;5.77;;;;;;;20.36;68.16;96972.06;5089584;28;20115;-79
2023/10/07 07:03:18;;;;;;;12.27;5.70;;;;;;;19.94;68.13;96974.00;5105070;28;20019;-79
2023/10/07 07:06:17;;;;;;;11.67;4.77;;;;;;;21.25;61.09;96981.56;5093284;28;20020;-79
2023/10/07 07:08:44;;;;;;;9.30;4.33;;;;;;;21.80;57.99;96994.66;5107779;28;20023;-79
2023/10/07 07:11:10;;;;;;;13.30;6.43;;;;;;;20.31;65.33;97001.22;5086924;28;20019;-80
2023/10/07 07:13:37;;;;;;;13.83;5.30;;;;;;;20.11;67.41;97011.03;5106858;28;20031;-80
2023/10/07 07:16:06;;;;;;;12.00;5.10;;;;;;;20.15;67.09;97022.97;5105140;28;20062;-82
2023/10/07 07:18:39;;;;;;;8.70;4.50;;;;;;;19.82;72.71;97029.00;5111522;28;20023;-79
2023/10/07 07:23:58;;;;;;;11.17;5.77;;;;;;;18.92;78.32;97032.47;5097747;28;20387;-80
2023/10/07 07:26:30;;;;;;;;;;;;;;;18.62;82.34;97032.59;5094583;28;20028;-80
2023/10/07 07:28:57;;;;;;;10.83;4.87;;;;;;;18.94;81.08;97036.56;5094027;28;19931;-80
2023/10/07 07:31:32;;;;;;;12.63;5.70;;;;;;;18.57;83.02;97019.81;5093461;28;20054;-80
2023/10/07 07:34:09;;;;;;;12.60;4.80;;;;;;;19.25;75.75;97024.75;5087481;28;20024;-80
2023/10/07 07:36:38;;;;;;;11.10;4.67;;;;;;;18.87;78.25;97025.03;5083929;28;20032;-80
2023/10/07 07:39:09;;;;;;;10.80;4.67;;;;;;;19.91;74.50;97026.97;5083142;28;20015;-81
2023/10/07 07:41:38;;;;;;;9.53;5.03;;;;;;;19.67;74.18;97028.28;5108675;28;20028;-83
2023/10/07 07:44:11;;;;;;;11.33;4.57;;;;;;;19.31;75.98;97032.78;5110692;28;20015;-81
2023/10/07 07:46:52;;;;;;;9.60;4.93;;;;;;;19.50;75.87;97020.56;5094033;28;20055;-80
2023/10/07 07:49:19;;;;;;;9.97;4.93;;;;;;;19.93;74.97;97025.75;5092850;28;20023;-80
2023/10/07 07:51:51;;;;;;;13.27;5.43;;;;;;;19.53;78.02;97036.19;5102923;28;20032;-80
2023/10/07 07:54:18;;;;;;;12.07;5.87;;;;;;;19.60;79.43;97040.75;5100774;28;20035;-80
2023/10/07 07:56:45;;;;;;;12.50;5.57;;;;;;;19.56;79.62;97029.66;5085486;28;20043;-80
2023/10/07 07:59:14;;;;;;;11.03;5.30;;;;;;;19.40;81.29;97032.63;5081962;28;20114;-80
2023/10/07 08:02:01;;;;;;;11.60;5.00;;;;;;;19.90;80.80;97036.84;5085432;28;20026;-80
2023/10/07 08:04:42;;;;;;;11.17;4.77;;;;;;;19.73;83.40;97046.19;5104631;28;20024;-80
2023/10/07 08:07:27;;;;;;;11.27;5.07;;;;;;;19.49;85.71;97048.28;5100679;28;20020;-80
2023/10/07 08:09:55;;;;;;;11.57;5.00;;;;;;;20.07;83.87;97034.66;5101134;28;20036;-81
2023/10/07 08:12:31;;;;;;;14.00;5.40;;;;;;;20.06;84.77;97034.84;5099700;28;20034;-80
2023/10/07 08:15:21;;;;;;;11.63;5.07;;;;;;;20.13;83.49;97033.84;5108669;27;20508;-81
2023/10/07 08:17:56;;;;;;;12.13;5.43;;;;;;;19.98;85.26;97036.66;5110280;28;20023;-79
2023/10/07 08:20:38;;;;;;;9.30;4.87;;;;;;;20.16;83.82;97035.31;5099106;28;20038;-79
2023/10/07 08:23:08;;;;;;;15.00;5.87;;;;;;;20.59;83.42;97035.03;5096671;28;20063;-80
2023/10/07 08:25:45;;;;;;;10.10;5.03;;;;;;;20.71;82.53;97034.22;5092835;28;20032;-80
2023/10/07 08:28:37;;;;;;;11.20;5.50;;;;;;;20.49;80.48;97041.56;5093441;28;20100;-80
2023/10/07 08:31:13;;;;;;;11.47;5.50;;;;;;;20.46;76.57;97041.97;5088004;28;20076;-80
2023/10/07 08:33:47;;;;;;;9.77;4.83;;;;;;;20.66;74.19;97039.38;5087269;28;20048;-80
2023/10/07 08:36:17;;;;;;;11.53;5.10;;;;;;;20.84;72.65;97038.78;5091402;28;20051;-80
2023/10/07 08:38:50;;;;;;;10.63;4.90;;;;;;;20.99;70.86;97043.09;5110171;28;20084;-80
2023/10/07 08:41:16;;;;;;;9.38;4.32;;;;;;;21.67;67.75;97045.56;5101905;28;20041;-80
2023/10/07 08:43:46;;;;;;;12.50;5.50;;;;;;;22.57;62.14;97049.13;5100561;28;20027;-80
2023/10/07 08:46:16;;;;;;;13.30;6.63;;;;;;;22.95;58.83;97056.34;5105976;28;20032;-80
2023/10/07 08:48:57;;;;;;;11.07;5.40;;;;;;;23.44;56.44;97050.16;5090233;28;20030;-80
2023/10/07 08:51:24;;;;;;;9.75;4.80;;;;;;;22.32;58.70;97046.38;5092487;28;20108;-80
2023/10/07 08:54:05;;;;;;;9.90;4.90;;;;;;;22.43;61.36;97042.19;5091874;28;20038;-79
2023/10/07 08:56:35;;;;;;;9.90;4.78;;;;;;;22.65;60.23;97046.19;5100184;28;20055;-79
2023/10/07 08:59:07;;;;;;;10.02;4.97;;;;;;;21.56;65.39;97050.50;5111052;28;20028;-80
2023/10/07 09:01:34;;;;;;;11.02;4.78;;;;;;;22.38;63.19;97047.38;5082373;28;20028;-80
2023/10/07 09:04:06;;;;;;;11.10;5.18;;;;;;;23.09;59.53;97054.38;5090483;28;20019;-79
2023/10/07 09:06:33;;;;;;;16.77;6.38;;;;;;;22.24;62.20;97060.03;5089515;28;20024;-80
2023/10/07 09:09:09;;;;;;;9.32;5.28;;;;;;;22.02;61.40;97059.44;5102766;28;20047;-80
2023/10/07 09:11:45;;;;;;;9.68;5.05;;;;;;;22.11;64.73;97067.03;5101510;28;20161;-81
2023/10/07 09:14:11;;;;;;;9.50;4.90;;;;;;;21.89;64.16;97061.13;5085529;28;20020;-80
2023/10/07 09:16:38;;;;;;;11.05;5.05;;;;;;;21.93;63.57;97066.06;5092059;28;20042;-81
2023/10/07 09:19:10;;;;;;;12.05;5.97;;;;;;;22.17;64.75;97064.59;5102376;28;20022;-81
2023/10/07 09:21:44;;;;;;;12.43;5.07;;;;;;;22.15;63.11;97064.78;5097039;28;20031;-79
2023/10/07 09:24:23;;;;;;;12.75;5.28;;;;;;;22.86;60.59;97065.66;5100295;27;20059;-79
2023/10/07 09:26:56;;;;;;;10.13;4.55;;;;;;;22.73;59.48;97066.56;5080018;28;20031;-79
2023/10/07 09:29:33;;;;;;;13.93;4.53;;;;;;;22.39;60.49;97063.22;5091874;28;20110;-80
2023/10/07 09:32:16;;;;;;;9.57;4.78;;;;;;;22.29;60.79;97055.66;5108538;28;20037;-80
2023/10/07 09:34:48;;;;;;;14.77;5.38;;;;;;;22.42;59.03;97062.81;5090895;28;20404;-79
2023/10/07 09:37:23;;;;;;;9.50;3.67;;;;;;;22.25;59.93;97054.44;5091563;28;20047;-78
2023/10/07 09:40:19;;;;;;;11.77;4.60;;;;;;;22.59;59.01;97057.75;5091892;28;20043;-79
2023/10/07 09:42:56;;;;;;;11.77;5.43;;;;;;;22.70;57.56;97053.56;5108381;28;20015;-79
2023/10/07 09:45:28;;;;;;;11.27;5.00;;;;;;;22.25;57.36;97062.47;5095381;28;20023;-80
2023/10/07 09:48:15;;;;;;;10.90;4.55;;;;;;;22.81;55.25;97056.41;5105660;28;20020;-79
2023/10/07 09:50:50;;;;;;;11.63;5.22;;;;;;;22.91;55.76;97063.16;5091178;28;20115;-79
2023/10/07 09:53:27;;;;;;;11.70;5.18;;;;;;;22.87;55.70;97054.72;5102821;28;20039;-80
2023/10/07 09:56:21;;;;;;;10.57;5.15;;;;;;;22.03;57.67;97063.75;5083694;28;20042;-79
2023/10/07 09:59:13;;;;;;;9.07;4.93;;;;;;;22.55;55.98;97052.00;5088090;28;20042;-79
2023/10/07 10:01:58;;;;;;;9.70;4.80;;;;;;;22.51;56.20;97058.84;5104499;28;20020;-80
2023/10/07 10:04:43;;;;;;;12.00;6.07;;;;;;;22.49;57.51;97065.44;5084105;28;20050;-80
2023/10/07 10:07:12;;;;;;;11.55;6.70;;;;;;;22.36;57.63;97060.97;5094433;28;20024;-80
2023/10/07 10:12:37;;;;;;;20.92;7.68;;;;;;;22.87;56.05;97061.91;5092431;28;20031;-80
2023/10/07 10:17:48;;;;;;;14.57;5.03;;;;;;;22.80;55.75;97070.84;5103278;28;20030;-80
2023/10/07 10:20:16;;;;;;;11.02;4.93;;;;;;;22.89;55.59;97066.03;5105613;28;20107;-80
2023/10/07 10:22:59;;;;;;;8.10;4.00;;;;;;;22.80;55.05;97075.38;5107973;28;20019;-79
2023/10/07 10:25:48;;;;;;;13.10;4.30;;;;;;;22.89;55.58;97073.25;5085173;28;20039;-78
2023/10/07 10:28:27;;;;;;;10.02;4.80;;;;;;;22.33;55.85;97074.81;5098965;28;20040;-80
2023/10/07 10:30:57;;;;;;;8.48;4.18;;;;;;;22.90;56.41;97085.63;5090471;28;20536;-80
2023/10/07 10:33:25;;;;;;;8.40;4.13;;;;;;;22.78;56.96;97085.50;5090480;28;20046;-81
2023/10/07 10:35:59;;;;;;;13.20;6.82;;;;;;;23.41;55.04;97082.81;5090494;28;20040;-80
2023/10/07 10:38:41;;;;;;;;;;;;;;;23.50;54.28;97077.97;5097155;28;20028;-80
2023/10/07 10:41:13;;;;;;;9.30;4.30;;;;;;;23.20;53.42;97067.06;5100221;28;19911;-81
2023/10/07 10:43:39;;;;;;;15.70;6.85;;;;;;;23.37;54.37;97068.16;5096121;28;20023;-79
2023/10/07 10:46:07;;;;;;;15.93;8.15;;;;;;;23.37;54.12;97072.72;5109227;28;20034;-80
2023/10/07 10:48:38;;;;;;;16.60;6.00;;;;;;;23.34;53.61;97065.94;5091182;28;20024;-82
2023/10/07 10:51:09;;;;;;;19.90;6.03;;;;;;;23.69;53.71;97076.19;5091525;28;20020;-82
2023/10/07 10:53:41;;;;;;;12.75;4.40;;;;;;;23.57;53.90;97065.28;5092081;28;20020;-81
2023/10/07 10:56:26;;;;;;;9.25;4.38;;;;;;;23.65;52.24;97061.53;5108268;28;20020;-82
2023/10/07 10:58:53;;;;;;;10.80;4.63;;;;;;;24.00;50.62;97056.41;5091613;28;20169;-82
2023/10/07 11:01:22;;;;;;;13.73;4.95;;;;;;;23.96;51.30;97052.53;5102842;28;20043;-81
2023/10/07 11:03:53;;;;;;;13.93;5.40;;;;;;;24.38;52.69;97055.31;5112798;28;20053;-83
2023/10/07 11:06:19;;;;;;;8.48;4.30;;;;;;;23.97;51.07;97059.53;5084484;28;20845;-81
2023/10/07 11:08:45;;;;;;;10.30;4.72;;;;;;;24.06;50.08;97063.56;5090855;28;20023;-82
2023/10/07 11:11:19;;;;;;;10.30;4.28;;;;;;;23.88;52.32;97055.53;5081841;28;20028;-82
2023/10/07 11:13:56;;;;;;;8.95;3.83;;;;;;;24.21;50.58;97055.13;5082447;28;20024;-82
2023/10/07 11:16:22;;;;;;;7.40;4.20;;;;;;;24.91;49.40;97043.84;5075073;28;20109;-83
2023/10/07 11:18:54;;;;;;;15.80;4.43;;;;;;;24.26;51.33;97027.59;5082820;28;20023;-83
2023/10/07 11:21:23;;;;;;;10.95;3.60;;;;;;;24.36;52.06;97017.09;5093935;28;20115;-82
2023/10/07 11:24:22;;;;;;;9.40;3.92;;;;;;;24.37;50.88;97022.25;5095408;28;20118;-83
2023/10/07 11:26:49;;;;;;;7.85;3.85;;;;;;;23.96;51.05;97026.50;5087253;28;20028;-84
2023/10/07 11:29:18;;;;;;;13.13;4.03;;;;;;;24.14;51.56;97028.31;5081985;28;20023;-84
2023/10/07 11:31:46;;;;;;;14.13;6.18;;;;;;;24.15;52.06;97018.44;5075015;28;20119;-81
2023/10/07 11:34:14;;;;;;;13.75;5.55;;;;;;;24.20;51.96;97002.44;5078509;28;20024;-81
2023/10/07 11:36:48;;;;;;;10.68;4.10;;;;;;;24.45;52.51;97007.72;5090223;28;20024;-82
2023/10/07 11:39:14;;;;;;;14.02;8.18;;;;;;;24.50;52.73;96999.78;5093783;28;20031;-79
2023/10/07 11:41:44;;;;;;;31.88;28.00;;;;;;;25.02;51.67;97001.91;5106435;28;20039;-80
2023/10/07 11:44:16;;;;;;;14.27;10.18;;;;;;;24.99;51.79;97005.03;5106553;28;20020;-82
2023/10/07 11:46:45;;;;;;;16.42;8.98;;;;;;;25.29;52.48;97013.06;5090045;28;20024;-81
2023/10/07 11:49:15;;;;;;;15.77;8.23;;;;;;;24.80;52.21;97004.28;5109669;28;20407;-80
2023/10/07 11:51:41;;;;;;;20.80;11.40;;;;;;;24.58;52.44;97004.84;5103343;28;20032;-80
2023/10/07 11:54:06;;;;;;;20.83;10.85;;;;;;;24.55;53.16;96997.22;5109635;28;20038;-82
2023/10/07 11:56:32;;;;;;;8.35;3.80;;;;;;;24.51;53.18;97001.41;5086340;28;20045;-80
2023/10/07 11:58:58;;;;;;;8.95;3.83;;;;;;;24.51;53.83;96993.34;5092036;28;20028;-80
2023/10/07 12:01:23;;;;;;;9.48;4.00;;;;;;;24.17;54.21;96990.25;5098854;28;20075;-80
2023/10/07 12:03:49;;;;;;;8.52;3.75;;;;;;;24.20;54.80;96991.69;5082998;28;20102;-80
2023/10/07 12:06:26;;;;;;;10.50;4.03;;;;;;;24.57;54.41;96989.72;5076794;28;20016;-80
2023/10/07 12:08:52;;;;;;;9.75;3.55;;;;;;;24.53;53.37;96980.50;5090933;28;20104;-80
2023/10/07 12:11:18;;;;;;;11.68;4.95;;;;;;;24.56;54.26;96980.03;5094134;28;20016;-80
2023/10/07 12:13:52;;;;;;;10.32;5.88;;;;;;;24.45;55.22;96983.53;5093829;28;20023;-81
2023/10/07 12:16:17;;;;;;;13.60;5.40;;;;;;;25.43;53.99;96982.16;5110557;28;20024;-81
2023/10/07 12:18:43;;;;;;;10.77;5.28;;;;;;;24.36;53.99;96985.66;5093617;28;20076;-79
2023/10/07 12:21:18;;;;;;;8.27;4.20;;;;;;;25.08;52.35;96988.31;5093761;28;20112;-79
2023/10/07 12:23:57;;;;;;;8.40;3.75;;;;;;;24.99;53.18;97003.16;5110491;28;20423;-79
2023/10/07 12:26:26;;;;;;;7.40;3.53;;;;;;;24.67;54.24;97005.31;5084063;28;20023;-79
2023/10/07 12:28:56;;;;;;;9.30;3.80;;;;;;;24.62;53.62;97007.88;5093680;28;20393;-80
2023/10/07 12:31:23;;;;;;;8.82;3.90;;;;;;;24.77;53.63;97004.75;5093394;28;20050;-79
2023/10/07 12:33:50;;;;;;;9.52;4.00;;;;;;;25.00;55.50;97006.69;5113323;28;20069;-85
2023/10/07 12:36:20;;;;;;;8.23;3.42;;;;;;;24.79;53.92;97016.13;5115357;28;20470;-86
2023/10/07 12:38:46;;;;;;;8.55;3.63;;;;;;;25.05;53.37;97009.47;5096221;28;20039;-85
2023/10/07 12:41:15;;;;;;;8.73;3.65;;;;;;;25.22;52.26;97012.31;5096693;28;20034;-87
2023/10/07 12:43:42;;;;;;;7.22;2.92;;;;;;;24.99;52.96;97007.75;5094337;28;20090;-88
2023/10/07 12:46:11;;;;;;;13.68;4.13;;;;;;;25.17;52.42;97005.78;5084673;28;20023;-80
2023/10/07 12:48:40;;;;;;;12.20;4.38;;;;;;;25.11;51.49;97005.84;5096022;28;20080;-84
2023/10/07 12:51:06;;;;;;;10.18;3.60;;;;;;;24.88;52.30;97001.25;5113640;28;20015;-79
2023/10/07 12:53:55;;;;;;;7.97;3.40;;;;;;;24.96;51.69;97008.19;5088339;28;20031;-80